sensor_id;sensor_type;location;lat;lon;timestamp;temperature;humidity
15259;DHT22;34462;51.368;12.364;2023-02-26T00:01:43;0.20;99.90
15259;DHT22;34462;51.368;12.364;2023-02-26T00:04:12;0.20;99.90
15259;DHT22;34462;51.368;12.364;2023-02-26T00:06:41;0.10;99.90
15259;DHT22;34462;51.368;12.364;2023-02-26T00:09:22;0.20;99.90
15259;DHT22;34462;51.368;12.364;2023-02-26T00:11:52;0.20;99.90
15259;DHT22;34462;51.368;12.364;2023-02-26T00:14:21;0.20;99.90
15259;DHT22;34462;51.368;12.364;2023-02-26T00:16:57;0.30;99.90
15259;DHT22;34462;51.368;12.364;2023-02-26T00:19:38;0.20;99.90
15259;DHT22;34462;51.368;12.364;2023-02-26T00:22:07;0.30;99.90
15259;DHT22;34462;51.368;12.364;2023-02-26T00:24:36;0.40;99.90
15259;DHT22;34462;51.368;12.364;2023-02-26T00:27:04;0.30;99.90
15259;DHT22;34462;51.368;12.364;2023-02-26T00:29:33;0.20;99.90
15259;DHT22;34462;51.368;12.364;2023-02-26T00:32:02;0.20;99.90
15259;DHT22;34462;51.368;12.364;2023-02-26T00:34:32;0.20;99.90
15259;DHT22;34462;51.368;12.364;2023-02-26T00:37:11;0.30;99.90
15259;DHT22;34462;51.368;12.364;2023-02-26T00:39:53;0.20;99.90
15259;DHT22;34462;51.368;12.364;2023-02-26T00:42:29;0.20;99.90
15259;DHT22;34462;51.368;12.364;2023-02-26T00:44:57;0.20;99.90
15259;DHT22;34462;51.368;12.364;2023-02-26T00:47:32;0.20;99.90
15259;DHT22;34462;51.368;12.364;2023-02-26T00:50:15;0.10;99.90
15259;DHT22;34462;51.368;12.364;2023-02-26T00:52:52;0.20;99.90
15259;DHT22;34462;51.368;12.364;2023-02-26T00:55:30;0.20;99.90
15259;DHT22;34462;51.368;12.364;2023-02-26T00:57:58;0.20;99.90
15259;DHT22;34462;51.368;12.364;2023-02-26T01:00:26;0.20;99.90
15259;DHT22;34462;51.368;12.364;2023-02-26T01:02:55;0.20;99.90
15259;DHT22;34462;51.368;12.364;2023-02-26T01:05:24;0.20;99.90
15259;DHT22;34462;51.368;12.364;2023-02-26T01:08:01;0.20;99.90
15259;DHT22;34462;51.368;12.364;2023-02-26T01:10:36;0.20;99.90
15259;DHT22;34462;51.368;12.364;2023-02-26T01:13:05;0.20;99.90
15259;DHT22;34462;51.368;12.364;2023-02-26T01:15:34;0.20;99.90
15259;DHT22;34462;51.368;12.364;2023-02-26T01:18:06;0.20;99.90
15259;DHT22;34462;51.368;12.364;2023-02-26T01:20:45;0.20;99.90
15259;DHT22;34462;51.368;12.364;2023-02-26T01:23:23;0.10;99.90
15259;DHT22;34462;51.368;12.364;2023-02-26T01:25:55;0.10;99.90
15259;DHT22;34462;51.368;12.364;2023-02-26T01:28:26;0.10;99.90
15259;DHT22;34462;51.368;12.364;2023-02-26T01:30:58;0.10;99.90
15259;DHT22;34462;51.368;12.364;2023-02-26T01:33:35;0.10;99.90
15259;DHT22;34462;51.368;12.364;2023-02-26T01:36:17;0.10;99.90
15259;DHT22;34462;51.368;12.364;2023-02-26T01:38:53;0.00;99.90
15259;DHT22;34462;51.368;12.364;2023-02-26T01:41:30;0.00;99.90
15259;DHT22;34462;51.368;12.364;2023-02-26T01:44:09;0.10;99.90
15259;DHT22;34462;51.368;12.364;2023-02-26T01:47:00;0.10;99.90
15259;DHT22;34462;51.368;12.364;2023-02-26T02:04:40;-0.10;99.90
15259;DHT22;34462;51.368;12.364;2023-02-26T02:07:10;0.10;99.90
15259;DHT22;34462;51.368;12.364;2023-02-26T02:09:40;0.10;99.90
15259;DHT22;34462;51.368;12.364;2023-02-26T02:12:21;0.10;99.90
15259;DHT22;34462;51.368;12.364;2023-02-26T02:15:07;0.10;99.90
15259;DHT22;34462;51.368;12.364;2023-02-26T02:17:48;0.10;99.90
15259;DHT22;34462;51.368;12.364;2023-02-26T02:20:34;0.00;99.90
15259;DHT22;34462;51.368;12.364;2023-02-26T02:23:22;0.00;99.90
15259;DHT22;34462;51.368;12.364;2023-02-26T02:26:33;0.00;99.90
15259;DHT22;34462;51.368;12.364;2023-02-26T02:32:31;0.10;99.90
15259;DHT22;34462;51.368;12.364;2023-02-26T02:35:10;0.10;99.90
15259;DHT22;34462;51.368;12.364;2023-02-26T02:37:46;0.10;99.90
15259;DHT22;34462;51.368;12.364;2023-02-26T02:40:19;0.10;99.90
15259;DHT22;34462;51.368;12.364;2023-02-26T02:42:54;0.10;99.90
15259;DHT22;34462;51.368;12.364;2023-02-26T02:45:31;0.10;99.90
15259;DHT22;34462;51.368;12.364;2023-02-26T02:48:11;-0.10;99.90
15259;DHT22;34462;51.368;12.364;2023-02-26T02:50:47;0.00;99.90
15259;DHT22;34462;51.368;12.364;2023-02-26T02:53:23;0.00;99.90
15259;DHT22;34462;51.368;12.364;2023-02-26T02:55:57;0.10;99.90
15259;DHT22;34462;51.368;12.364;2023-02-26T02:58:33;0.00;99.90
15259;DHT22;34462;51.368;12.364;2023-02-26T03:06:16;-0.20;99.90
15259;DHT22;34462;51.368;12.364;2023-02-26T03:08:45;-0.10;99.90
15259;DHT22;34462;51.368;12.364;2023-02-26T03:11:14;-0.10;99.90
15259;DHT22;34462;51.368;12.364;2023-02-26T03:13:43;-0.20;99.90
15259;DHT22;34462;51.368;12.364;2023-02-26T03:16:28;-0.20;99.90
15259;DHT22;34462;51.368;12.364;2023-02-26T03:19:20;-0.20;99.90
15259;DHT22;34462;51.368;12.364;2023-02-26T03:21:56;-0.20;99.90
15259;DHT22;34462;51.368;12.364;2023-02-26T03:24:36;-0.20;99.90
15259;DHT22;34462;51.368;12.364;2023-02-26T03:27:10;-0.10;99.90
15259;DHT22;34462;51.368;12.364;2023-02-26T03:29:49;-0.20;99.90
15259;DHT22;34462;51.368;12.364;2023-02-26T03:32:25;-0.10;99.90
15259;DHT22;34462;51.368;12.364;2023-02-26T03:35:02;-0.20;99.90
15259;DHT22;34462;51.368;12.364;2023-02-26T03:37:38;-0.10;99.90
15259;DHT22;34462;51.368;12.364;2023-02-26T03:40:12;-0.20;99.90
15259;DHT22;34462;51.368;12.364;2023-02-26T03:42:50;-0.20;99.90
15259;DHT22;34462;51.368;12.364;2023-02-26T03:45:25;-0.10;99.90
15259;DHT22;34462;51.368;12.364;2023-02-26T03:47:58;-0.10;99.90
15259;DHT22;34462;51.368;12.364;2023-02-26T03:50:32;-0.20;99.90
15259;DHT22;34462;51.368;12.364;2023-02-26T03:53:06;-0.10;99.90
15259;DHT22;34462;51.368;12.364;2023-02-26T03:55:40;-0.20;99.90
15259;DHT22;34462;51.368;12.364;2023-02-26T03:58:12;-0.20;99.90
15259;DHT22;34462;51.368;12.364;2023-02-26T04:00:42;-0.20;99.90
15259;DHT22;34462;51.368;12.364;2023-02-26T04:03:16;-0.20;99.90
15259;DHT22;34462;51.368;12.364;2023-02-26T04:05:52;-0.20;99.90
15259;DHT22;34462;51.368;12.364;2023-02-26T04:08:22;-0.20;99.90
15259;DHT22;34462;51.368;12.364;2023-02-26T04:10:54;-0.20;99.90
15259;DHT22;34462;51.368;12.364;2023-02-26T04:13:25;-0.20;99.90
15259;DHT22;34462;51.368;12.364;2023-02-26T04:15:54;-0.30;99.90
15259;DHT22;34462;51.368;12.364;2023-02-26T04:18:22;-0.30;99.90
15259;DHT22;34462;51.368;12.364;2023-02-26T04:20:52;-0.30;99.90
15259;DHT22;34462;51.368;12.364;2023-02-26T04:33:18;-0.20;99.90
15259;DHT22;34462;51.368;12.364;2023-02-26T04:35:46;-0.30;99.90
15259;DHT22;34462;51.368;12.364;2023-02-26T04:38:15;-0.30;99.90
15259;DHT22;34462;51.368;12.364;2023-02-26T04:40:44;-0.20;99.90
15259;DHT22;34462;51.368;12.364;2023-02-26T04:43:12;-0.20;99.90
15259;DHT22;34462;51.368;12.364;2023-02-26T04:45:40;-0.20;99.90
15259;DHT22;34462;51.368;12.364;2023-02-26T04:48:08;0.00;99.90
15259;DHT22;34462;51.368;12.364;2023-02-26T04:50:36;-0.20;99.90
15259;DHT22;34462;51.368;12.364;2023-02-26T04:53:05;-0.20;99.90
15259;DHT22;34462;51.368;12.364;2023-02-26T04:55:35;-0.20;99.90
15259;DHT22;34462;51.368;12.364;2023-02-26T04:58:03;-0.10;99.90
15259;DHT22;34462;51.368;12.364;2023-02-26T05:00:31;-0.10;99.90
15259;DHT22;34462;51.368;12.364;2023-02-26T05:03:00;-0.10;99.90
15259;DHT22;34462;51.368;12.364;2023-02-26T05:05:28;-0.10;99.90
15259;DHT22;34462;51.368;12.364;2023-02-26T05:07:57;-0.10;99.90
15259;DHT22;34462;51.368;12.364;2023-02-26T05:10:25;0.00;99.90
15259;DHT22;34462;51.368;12.364;2023-02-26T05:20:22;-0.20;99.90
15259;DHT22;34462;51.368;12.364;2023-02-26T05:22:50;-0.20;99.90
15259;DHT22;34462;51.368;12.364;2023-02-26T05:25:18;-0.30;99.90
15259;DHT22;34462;51.368;12.364;2023-02-26T05:35:15;-0.30;99.90
15259;DHT22;34462;51.368;12.364;2023-02-26T05:37:43;-0.30;99.90
15259;DHT22;34462;51.368;12.364;2023-02-26T05:40:12;-0.20;99.90
15259;DHT22;34462;51.368;12.364;2023-02-26T05:42:40;-0.30;99.90
15259;DHT22;34462;51.368;12.364;2023-02-26T05:45:08;-0.10;99.90
15259;DHT22;34462;51.368;12.364;2023-02-26T05:47:38;-0.20;99.90
15259;DHT22;34462;51.368;12.364;2023-02-26T05:50:07;-0.20;99.90
15259;DHT22;34462;51.368;12.364;2023-02-26T05:52:36;-0.20;99.90
15259;DHT22;34462;51.368;12.364;2023-02-26T05:55:06;-0.10;99.90
15259;DHT22;34462;51.368;12.364;2023-02-26T05:57:35;-0.10;99.90
15259;DHT22;34462;51.368;12.364;2023-02-26T06:40:09;0.10;99.90
15259;DHT22;34462;51.368;12.364;2023-02-26T06:42:38;0.20;99.90
15259;DHT22;34462;51.368;12.364;2023-02-26T06:45:07;0.10;99.90
15259;DHT22;34462;51.368;12.364;2023-02-26T06:47:36;0.10;99.90
15259;DHT22;34462;51.368;12.364;2023-02-26T06:50:05;0.20;99.90
15259;DHT22;34462;51.368;12.364;2023-02-26T06:52:35;0.20;99.90
15259;DHT22;34462;51.368;12.364;2023-02-26T06:55:04;0.20;99.90
15259;DHT22;34462;51.368;12.364;2023-02-26T06:57:33;0.20;99.90
15259;DHT22;34462;51.368;12.364;2023-02-26T07:00:02;0.20;99.90
15259;DHT22;34462;51.368;12.364;2023-02-26T07:02:34;0.30;99.90
15259;DHT22;34462;51.368;12.364;2023-02-26T07:05:03;0.40;99.90
15259;DHT22;34462;51.368;12.364;2023-02-26T07:07:31;0.40;99.90
15259;DHT22;34462;51.368;12.364;2023-02-26T07:10:00;0.50;99.90
15259;DHT22;34462;51.368;12.364;2023-02-26T07:12:29;0.40;99.90
15259;DHT22;34462;51.368;12.364;2023-02-26T07:14:57;0.40;99.90
15259;DHT22;34462;51.368;12.364;2023-02-26T07:17:25;0.30;99.90
15259;DHT22;34462;51.368;12.364;2023-02-26T07:19:53;0.40;99.90
15259;DHT22;34462;51.368;12.364;2023-02-26T07:22:21;0.50;99.90
15259;DHT22;34462;51.368;12.364;2023-02-26T07:24:50;0.50;99.90
15259;DHT22;34462;51.368;12.364;2023-02-26T07:27:19;0.50;99.90
15259;DHT22;34462;51.368;12.364;2023-02-26T07:29:47;0.50;99.90
15259;DHT22;34462;51.368;12.364;2023-02-26T07:32:15;0.50;99.90
15259;DHT22;34462;51.368;12.364;2023-02-26T07:34:44;0.50;99.90
15259;DHT22;34462;51.368;12.364;2023-02-26T07:37:12;0.50;99.90
15259;DHT22;34462;51.368;12.364;2023-02-26T07:39:40;0.50;99.90
15259;DHT22;34462;51.368;12.364;2023-02-26T07:42:08;0.70;99.90
15259;DHT22;34462;51.368;12.364;2023-02-26T07:44:38;0.80;99.90
15259;DHT22;34462;51.368;12.364;2023-02-26T07:47:07;0.80;99.90
15259;DHT22;34462;51.368;12.364;2023-02-26T07:49:35;0.70;99.90
15259;DHT22;34462;51.368;12.364;2023-02-26T07:52:03;0.70;99.90
15259;DHT22;34462;51.368;12.364;2023-02-26T07:54:33;0.80;99.90
15259;DHT22;34462;51.368;12.364;2023-02-26T07:57:03;0.80;99.90
15259;DHT22;34462;51.368;12.364;2023-02-26T07:59:32;0.80;99.90
15259;DHT22;34462;51.368;12.364;2023-02-26T08:02:01;0.90;99.90
15259;DHT22;34462;51.368;12.364;2023-02-26T08:04:30;1.00;99.90
15259;DHT22;34462;51.368;12.364;2023-02-26T08:06:58;1.00;99.90
15259;DHT22;34462;51.368;12.364;2023-02-26T08:09:27;1.00;99.90
15259;DHT22;34462;51.368;12.364;2023-02-26T08:11:56;1.00;99.90
15259;DHT22;34462;51.368;12.364;2023-02-26T08:14:24;1.10;99.90
15259;DHT22;34462;51.368;12.364;2023-02-26T08:16:52;1.20;99.90
15259;DHT22;34462;51.368;12.364;2023-02-26T08:19:22;1.30;99.90
15259;DHT22;34462;51.368;12.364;2023-02-26T08:21:50;1.30;99.90
15259;DHT22;34462;51.368;12.364;2023-02-26T08:24:20;1.30;99.90
15259;DHT22;34462;51.368;12.364;2023-02-26T08:26:49;1.40;99.90
15259;DHT22;34462;51.368;12.364;2023-02-26T08:29:18;1.30;99.90
15259;DHT22;34462;51.368;12.364;2023-02-26T08:31:47;1.40;99.90
15259;DHT22;34462;51.368;12.364;2023-02-26T08:34:15;1.40;99.90
15259;DHT22;34462;51.368;12.364;2023-02-26T08:36:45;1.40;99.90
15259;DHT22;34462;51.368;12.364;2023-02-26T08:39:13;1.50;99.90
15259;DHT22;34462;51.368;12.364;2023-02-26T08:41:41;1.50;99.90
15259;DHT22;34462;51.368;12.364;2023-02-26T08:44:09;1.50;99.90
15259;DHT22;34462;51.368;12.364;2023-02-26T08:46:38;1.60;99.90
15259;DHT22;34462;51.368;12.364;2023-02-26T08:49:06;1.60;99.90
15259;DHT22;34462;51.368;12.364;2023-02-26T08:51:34;1.70;99.90
15259;DHT22;34462;51.368;12.364;2023-02-26T08:54:04;1.70;99.90
15259;DHT22;34462;51.368;12.364;2023-02-26T08:56:32;1.80;99.90
15259;DHT22;34462;51.368;12.364;2023-02-26T08:59:00;1.70;99.90
15259;DHT22;34462;51.368;12.364;2023-02-26T09:01:28;1.60;99.90
15259;DHT22;34462;51.368;12.364;2023-02-26T09:03:56;1.70;99.90
15259;DHT22;34462;51.368;12.364;2023-02-26T09:06:25;1.70;99.90
15259;DHT22;34462;51.368;12.364;2023-02-26T09:08:53;1.60;99.90
15259;DHT22;34462;51.368;12.364;2023-02-26T09:11:23;1.70;99.90
15259;DHT22;34462;51.368;12.364;2023-02-26T09:13:52;1.60;99.90
15259;DHT22;34462;51.368;12.364;2023-02-26T09:16:20;1.70;99.90
15259;DHT22;34462;51.368;12.364;2023-02-26T09:18:48;1.90;99.90
15259;DHT22;34462;51.368;12.364;2023-02-26T09:21:16;1.80;99.90
15259;DHT22;34462;51.368;12.364;2023-02-26T09:23:44;1.90;99.90
15259;DHT22;34462;51.368;12.364;2023-02-26T09:26:13;2.00;99.90
15259;DHT22;34462;51.368;12.364;2023-02-26T09:28:42;2.10;99.90
15259;DHT22;34462;51.368;12.364;2023-02-26T09:31:11;2.20;99.90
15259;DHT22;34462;51.368;12.364;2023-02-26T09:33:39;2.40;99.90
15259;DHT22;34462;51.368;12.364;2023-02-26T09:36:07;2.50;99.90
15259;DHT22;34462;51.368;12.364;2023-02-26T09:38:36;2.70;99.90
15259;DHT22;34462;51.368;12.364;2023-02-26T09:41:07;2.80;99.90
15259;DHT22;34462;51.368;12.364;2023-02-26T09:44:06;2.90;99.90
15259;DHT22;34462;51.368;12.364;2023-02-26T09:46:45;2.90;99.90
15259;DHT22;34462;51.368;12.364;2023-02-26T09:49:28;2.90;99.90
15259;DHT22;34462;51.368;12.364;2023-02-26T09:52:22;3.00;99.90
15259;DHT22;34462;51.368;12.364;2023-02-26T09:54:58;3.10;99.90
15259;DHT22;34462;51.368;12.364;2023-02-26T09:57:32;3.10;99.90
15259;DHT22;34462;51.368;12.364;2023-02-26T10:00:17;3.20;99.90
15259;DHT22;34462;51.368;12.364;2023-02-26T10:03:01;3.20;99.90
15259;DHT22;34462;51.368;12.364;2023-02-26T10:05:47;3.20;99.90
15259;DHT22;34462;51.368;12.364;2023-02-26T10:08:35;3.20;99.90
15259;DHT22;34462;51.368;12.364;2023-02-26T10:11:13;3.10;99.90
15259;DHT22;34462;51.368;12.364;2023-02-26T10:13:52;3.30;99.90
15259;DHT22;34462;51.368;12.364;2023-02-26T10:16:28;3.30;99.90
15259;DHT22;34462;51.368;12.364;2023-02-26T10:19:03;3.30;99.90
15259;DHT22;34462;51.368;12.364;2023-02-26T10:21:39;3.30;99.90
15259;DHT22;34462;51.368;12.364;2023-02-26T10:24:17;3.40;99.90
15259;DHT22;34462;51.368;12.364;2023-02-26T10:26:52;3.30;99.90
15259;DHT22;34462;51.368;12.364;2023-02-26T10:29:32;3.30;99.90
15259;DHT22;34462;51.368;12.364;2023-02-26T10:32:17;3.30;99.90
15259;DHT22;34462;51.368;12.364;2023-02-26T10:34:54;3.40;99.90
15259;DHT22;34462;51.368;12.364;2023-02-26T10:37:35;3.50;99.90
15259;DHT22;34462;51.368;12.364;2023-02-26T10:40:17;3.60;99.90
15259;DHT22;34462;51.368;12.364;2023-02-26T10:42:58;3.40;99.90
15259;DHT22;34462;51.368;12.364;2023-02-26T10:45:38;3.40;99.90
15259;DHT22;34462;51.368;12.364;2023-02-26T10:48:22;3.50;99.90
15259;DHT22;34462;51.368;12.364;2023-02-26T10:51:09;3.70;99.90
15259;DHT22;34462;51.368;12.364;2023-02-26T10:53:44;3.70;99.90
15259;DHT22;34462;51.368;12.364;2023-02-26T10:56:19;3.70;99.90
15259;DHT22;34462;51.368;12.364;2023-02-26T10:58:50;3.70;99.90
15259;DHT22;34462;51.368;12.364;2023-02-26T11:01:23;3.70;99.90
15259;DHT22;34462;51.368;12.364;2023-02-26T11:03:57;3.80;99.90
15259;DHT22;34462;51.368;12.364;2023-02-26T11:06:31;3.90;99.90
15259;DHT22;34462;51.368;12.364;2023-02-26T11:09:02;4.00;99.90
15259;DHT22;34462;51.368;12.364;2023-02-26T11:11:44;4.10;99.90
15259;DHT22;34462;51.368;12.364;2023-02-26T11:14:14;4.10;99.90
15259;DHT22;34462;51.368;12.364;2023-02-26T11:16:46;4.10;99.90
15259;DHT22;34462;51.368;12.364;2023-02-26T11:19:22;4.10;99.90
15259;DHT22;34462;51.368;12.364;2023-02-26T11:21:55;4.20;99.90
15259;DHT22;34462;51.368;12.364;2023-02-26T11:24:28;4.30;99.90
15259;DHT22;34462;51.368;12.364;2023-02-26T11:27:03;4.30;99.90
15259;DHT22;34462;51.368;12.364;2023-02-26T11:29:36;4.30;99.90
15259;DHT22;34462;51.368;12.364;2023-02-26T11:32:05;4.20;99.90
15259;DHT22;34462;51.368;12.364;2023-02-26T11:34:45;4.00;99.90
15259;DHT22;34462;51.368;12.364;2023-02-26T11:37:17;3.90;99.90
15259;DHT22;34462;51.368;12.364;2023-02-26T11:39:51;3.80;99.90
15259;DHT22;34462;51.368;12.364;2023-02-26T11:42:24;3.90;99.90
15259;DHT22;34462;51.368;12.364;2023-02-26T11:44:53;3.90;99.90
15259;DHT22;34462;51.368;12.364;2023-02-26T11:47:27;3.90;99.90
15259;DHT22;34462;51.368;12.364;2023-02-26T11:50:04;3.90;99.90
15259;DHT22;34462;51.368;12.364;2023-02-26T11:52:41;4.00;99.90
15259;DHT22;34462;51.368;12.364;2023-02-26T11:55:26;4.00;99.90
15259;DHT22;34462;51.368;12.364;2023-02-26T11:57:56;4.20;99.90
15259;DHT22;34462;51.368;12.364;2023-02-26T12:00:28;4.30;99.90
15259;DHT22;34462;51.368;12.364;2023-02-26T12:14:42;4.60;99.90
15259;DHT22;34462;51.368;12.364;2023-02-26T12:17:29;4.80;99.90
15259;DHT22;34462;51.368;12.364;2023-02-26T12:20:16;5.20;99.90
15259;DHT22;34462;51.368;12.364;2023-02-26T12:22:55;5.20;99.90
15259;DHT22;34462;51.368;12.364;2023-02-26T12:25:42;5.30;99.90
15259;DHT22;34462;51.368;12.364;2023-02-26T12:28:41;4.90;99.90
15259;DHT22;34462;51.368;12.364;2023-02-26T12:31:41;4.50;99.90
15259;DHT22;34462;51.368;12.364;2023-02-26T12:34:57;4.20;99.90
15259;DHT22;34462;51.368;12.364;2023-02-26T12:37:54;4.00;99.90
15259;DHT22;34462;51.368;12.364;2023-02-26T12:40:48;4.10;99.90
15259;DHT22;34462;51.368;12.364;2023-02-26T12:43:41;4.20;99.90
15259;DHT22;34462;51.368;12.364;2023-02-26T12:46:23;4.30;99.90
15259;DHT22;34462;51.368;12.364;2023-02-26T12:52:52;4.80;99.90
15259;DHT22;34462;51.368;12.364;2023-02-26T12:55:34;4.90;99.90
15259;DHT22;34462;51.368;12.364;2023-02-26T13:01:38;4.10;99.90
15259;DHT22;34462;51.368;12.364;2023-02-26T13:04:54;3.60;99.90
15259;DHT22;34462;51.368;12.364;2023-02-26T13:10:47;3.40;99.90
15259;DHT22;34462;51.368;12.364;2023-02-26T13:13:50;3.50;99.90
15259;DHT22;34462;51.368;12.364;2023-02-26T13:16:36;3.50;99.90
15259;DHT22;34462;51.368;12.364;2023-02-26T13:19:21;3.50;99.90
15259;DHT22;34462;51.368;12.364;2023-02-26T13:21:59;3.60;99.90
15259;DHT22;34462;51.368;12.364;2023-02-26T13:24:35;3.80;99.90
15259;DHT22;34462;51.368;12.364;2023-02-26T13:27:08;4.00;99.90
15259;DHT22;34462;51.368;12.364;2023-02-26T13:29:46;4.40;99.90
15259;DHT22;34462;51.368;12.364;2023-02-26T13:32:18;4.70;99.90
15259;DHT22;34462;51.368;12.364;2023-02-26T13:34:53;4.90;99.90
15259;DHT22;34462;51.368;12.364;2023-02-26T13:37:26;5.00;99.90
15259;DHT22;34462;51.368;12.364;2023-02-26T13:40:23;5.10;99.90
15259;DHT22;34462;51.368;12.364;2023-02-26T13:43:13;5.10;99.90
15259;DHT22;34462;51.368;12.364;2023-02-26T13:46:01;4.90;99.90
15259;DHT22;34462;51.368;12.364;2023-02-26T13:48:44;4.60;99.90
15259;DHT22;34462;51.368;12.364;2023-02-26T13:51:30;4.60;99.90
15259;DHT22;34462;51.368;12.364;2023-02-26T13:54:07;4.80;99.90
15259;DHT22;34462;51.368;12.364;2023-02-26T13:57:05;4.70;99.90
15259;DHT22;34462;51.368;12.364;2023-02-26T13:59:51;4.90;99.90
15259;DHT22;34462;51.368;12.364;2023-02-26T14:02:43;4.80;99.90
15259;DHT22;34462;51.368;12.364;2023-02-26T14:05:35;4.40;99.90
15259;DHT22;34462;51.368;12.364;2023-02-26T14:14:34;3.80;99.90
15259;DHT22;34462;51.368;12.364;2023-02-26T14:17:29;3.90;99.90
15259;DHT22;34462;51.368;12.364;2023-02-26T14:20:21;4.00;99.90
15259;DHT22;34462;51.368;12.364;2023-02-26T14:22:58;4.20;99.90
15259;DHT22;34462;51.368;12.364;2023-02-26T14:25:40;4.60;99.90
15259;DHT22;34462;51.368;12.364;2023-02-26T14:28:32;4.60;99.90
15259;DHT22;34462;51.368;12.364;2023-02-26T14:31:14;4.60;99.90
15259;DHT22;34462;51.368;12.364;2023-02-26T14:33:58;4.50;99.90
15259;DHT22;34462;51.368;12.364;2023-02-26T14:36:41;4.30;99.90
15259;DHT22;34462;51.368;12.364;2023-02-26T14:39:26;4.20;99.90
15259;DHT22;34462;51.368;12.364;2023-02-26T14:42:01;4.10;99.90
15259;DHT22;34462;51.368;12.364;2023-02-26T14:44:36;4.00;99.90
15259;DHT22;34462;51.368;12.364;2023-02-26T14:47:07;4.00;99.90
15259;DHT22;34462;51.368;12.364;2023-02-26T14:49:41;3.90;99.90
15259;DHT22;34462;51.368;12.364;2023-02-26T14:52:35;3.90;99.90
15259;DHT22;34462;51.368;12.364;2023-02-26T14:55:30;3.90;99.90
15259;DHT22;34462;51.368;12.364;2023-02-26T15:01:36;3.90;99.90
15259;DHT22;34462;51.368;12.364;2023-02-26T15:04:22;3.90;99.90
15259;DHT22;34462;51.368;12.364;2023-02-26T15:07:21;3.90;99.90
15259;DHT22;34462;51.368;12.364;2023-02-26T15:10:21;3.80;99.90
15259;DHT22;34462;51.368;12.364;2023-02-26T15:13:19;3.60;99.90
15259;DHT22;34462;51.368;12.364;2023-02-26T15:16:11;3.30;99.90
15259;DHT22;34462;51.368;12.364;2023-02-26T15:19:04;3.00;99.90
15259;DHT22;34462;51.368;12.364;2023-02-26T15:21:52;3.00;99.90
15259;DHT22;34462;51.368;12.364;2023-02-26T15:24:36;3.00;99.90
15259;DHT22;34462;51.368;12.364;2023-02-26T15:27:10;3.00;99.90
15259;DHT22;34462;51.368;12.364;2023-02-26T15:29:43;3.00;99.90
15259;DHT22;34462;51.368;12.364;2023-02-26T15:32:15;3.00;99.90
15259;DHT22;34462;51.368;12.364;2023-02-26T15:34:57;3.00;99.90
15259;DHT22;34462;51.368;12.364;2023-02-26T15:37:28;3.00;99.90
15259;DHT22;34462;51.368;12.364;2023-02-26T15:40:03;2.90;99.90
15259;DHT22;34462;51.368;12.364;2023-02-26T15:42:35;3.10;99.90
15259;DHT22;34462;51.368;12.364;2023-02-26T15:45:13;3.10;99.90
15259;DHT22;34462;51.368;12.364;2023-02-26T15:47:48;3.20;99.90
15259;DHT22;34462;51.368;12.364;2023-02-26T15:50:23;3.20;99.90
15259;DHT22;34462;51.368;12.364;2023-02-26T15:52:57;3.20;99.90
15259;DHT22;34462;51.368;12.364;2023-02-26T15:55:33;3.30;99.90
15259;DHT22;34462;51.368;12.364;2023-02-26T15:58:05;3.30;99.90
15259;DHT22;34462;51.368;12.364;2023-02-26T16:00:36;3.30;99.90
15259;DHT22;34462;51.368;12.364;2023-02-26T16:03:04;3.20;99.90
15259;DHT22;34462;51.368;12.364;2023-02-26T16:05:33;3.10;99.90
15259;DHT22;34462;51.368;12.364;2023-02-26T16:08:01;3.10;99.90
15259;DHT22;34462;51.368;12.364;2023-02-26T16:10:34;3.00;99.90
15259;DHT22;34462;51.368;12.364;2023-02-26T16:13:06;2.90;99.90
15259;DHT22;34462;51.368;12.364;2023-02-26T16:15:41;2.90;99.90
15259;DHT22;34462;51.368;12.364;2023-02-26T16:18:14;2.70;99.90
15259;DHT22;34462;51.368;12.364;2023-02-26T16:20:47;2.70;99.90
15259;DHT22;34462;51.368;12.364;2023-02-26T16:23:21;2.60;99.90
15259;DHT22;34462;51.368;12.364;2023-02-26T16:25:54;2.60;99.90
15259;DHT22;34462;51.368;12.364;2023-02-26T16:28:28;2.50;99.90
15259;DHT22;34462;51.368;12.364;2023-02-26T16:31:00;2.40;99.90
15259;DHT22;34462;51.368;12.364;2023-02-26T16:33:33;2.50;99.90
15259;DHT22;34462;51.368;12.364;2023-02-26T16:36:09;2.40;99.90
15259;DHT22;34462;51.368;12.364;2023-02-26T16:38:46;2.30;99.90
15259;DHT22;34462;51.368;12.364;2023-02-26T16:41:21;2.30;99.90
15259;DHT22;34462;51.368;12.364;2023-02-26T16:43:53;2.30;99.90
15259;DHT22;34462;51.368;12.364;2023-02-26T16:46:32;2.20;99.90
15259;DHT22;34462;51.368;12.364;2023-02-26T16:49:07;2.10;99.90
15259;DHT22;34462;51.368;12.364;2023-02-26T16:51:39;2.10;99.90
15259;DHT22;34462;51.368;12.364;2023-02-26T16:54:14;2.10;99.90
15259;DHT22;34462;51.368;12.364;2023-02-26T16:56:53;2.00;99.90
15259;DHT22;34462;51.368;12.364;2023-02-26T16:59:25;2.00;99.90
15259;DHT22;34462;51.368;12.364;2023-02-26T17:01:58;1.80;99.90
15259;DHT22;34462;51.368;12.364;2023-02-26T17:04:31;1.70;99.90
15259;DHT22;34462;51.368;12.364;2023-02-26T17:07:08;1.60;99.90
15259;DHT22;34462;51.368;12.364;2023-02-26T17:09:48;1.60;99.90
15259;DHT22;34462;51.368;12.364;2023-02-26T17:12:21;1.60;99.90
15259;DHT22;34462;51.368;12.364;2023-02-26T17:14:54;1.50;99.90
15259;DHT22;34462;51.368;12.364;2023-02-26T17:17:24;1.40;99.90
15259;DHT22;34462;51.368;12.364;2023-02-26T17:19:52;1.40;99.90
15259;DHT22;34462;51.368;12.364;2023-02-26T17:22:24;1.30;99.90
15259;DHT22;34462;51.368;12.364;2023-02-26T17:24:54;1.30;99.90
15259;DHT22;34462;51.368;12.364;2023-02-26T17:27:27;1.30;99.90
15259;DHT22;34462;51.368;12.364;2023-02-26T17:30:00;1.40;99.90
15259;DHT22;34462;51.368;12.364;2023-02-26T17:32:29;1.40;99.90
15259;DHT22;34462;51.368;12.364;2023-02-26T17:34:58;1.30;99.90
15259;DHT22;34462;51.368;12.364;2023-02-26T17:37:30;1.20;99.90
15259;DHT22;34462;51.368;12.364;2023-02-26T17:40:01;1.20;99.90
15259;DHT22;34462;51.368;12.364;2023-02-26T17:42:31;1.20;99.90
15259;DHT22;34462;51.368;12.364;2023-02-26T17:45:00;1.20;99.90
15259;DHT22;34462;51.368;12.364;2023-02-26T17:47:28;1.20;99.90
15259;DHT22;34462;51.368;12.364;2023-02-26T17:49:56;1.30;99.90
15259;DHT22;34462;51.368;12.364;2023-02-26T17:52:25;1.20;99.90
15259;DHT22;34462;51.368;12.364;2023-02-26T17:54:53;1.20;99.90
15259;DHT22;34462;51.368;12.364;2023-02-26T17:57:22;1.10;99.90
15259;DHT22;34462;51.368;12.364;2023-02-26T17:59:54;1.20;99.90
15259;DHT22;34462;51.368;12.364;2023-02-26T18:02:24;1.20;99.90
15259;DHT22;34462;51.368;12.364;2023-02-26T18:04:53;1.30;99.90
15259;DHT22;34462;51.368;12.364;2023-02-26T18:07:23;1.20;99.90
15259;DHT22;34462;51.368;12.364;2023-02-26T18:09:51;1.20;99.90
15259;DHT22;34462;51.368;12.364;2023-02-26T18:12:20;1.30;99.90
15259;DHT22;34462;51.368;12.364;2023-02-26T18:14:49;1.20;99.90
15259;DHT22;34462;51.368;12.364;2023-02-26T18:17:23;1.10;99.90